createdAt,value
2018-07-28T00:02:44.411Z,69.80
2018-07-28T00:05:47.648Z,68.90
2018-07-28T00:08:51.008Z,70.00
2018-07-28T00:11:54.271Z,67.70
2018-07-28T00:14:57.587Z,69.70
2018-07-28T00:18:01.008Z,69.10
2018-07-28T00:21:04.461Z,69.50
2018-07-28T00:24:07.801Z,70.00
2018-07-28T00:27:11.142Z,65.00
2018-07-28T00:30:14.627Z,68.40
2018-07-28T00:33:17.880Z,66.30
2018-07-28T00:36:21.149Z,68.30
2018-07-28T00:39:30.337Z,66.30
2018-07-28T00:42:33.590Z,68.80
2018-07-28T00:45:36.989Z,69.50
2018-07-28T00:48:40.252Z,66.90
2018-07-28T00:51:43.558Z,66.10
2018-07-28T00:54:47.525Z,65.40
2018-07-28T00:57:50.891Z,65.90
2018-07-28T01:00:54.388Z,64.50
2018-07-28T01:03:57.716Z,64.20
2018-07-28T01:07:01.000Z,64.80
2018-07-28T01:10:05.156Z,67.10
2018-07-28T01:13:08.910Z,64.10
2018-07-28T01:16:12.382Z,63.70
2018-07-28T01:19:15.924Z,65.60
2018-07-28T01:22:19.280Z,64.90
2018-07-28T01:25:22.647Z,63.00
2018-07-28T01:28:25.906Z,63.90
2018-07-28T01:31:29.216Z,63.50
2018-07-28T01:34:32.670Z,65.70
2018-07-28T01:37:36.107Z,63.80
2018-07-28T01:40:39.446Z,64.60
2018-07-28T01:43:42.801Z,63.30
2018-07-28T01:46:46.093Z,63.30
2018-07-28T01:49:49.515Z,64.10
2018-07-28T01:52:52.807Z,63.40
2018-07-28T01:55:56.099Z,64.90
2018-07-28T01:58:59.528Z,65.00
2018-07-28T02:02:02.873Z,64.90
2018-07-28T02:05:07.989Z,64.00
2018-07-28T02:08:11.285Z,65.40
2018-07-28T02:11:14.593Z,66.60
2018-07-28T02:14:17.825Z,68.00
2018-07-28T02:17:21.014Z,66.70
2018-07-28T02:20:24.285Z,68.40
2018-07-28T02:23:27.508Z,68.70
2018-07-28T02:26:30.678Z,67.30
2018-07-28T02:29:33.960Z,67.30
2018-07-28T02:32:37.121Z,66.80
2018-07-28T02:35:40.287Z,70.00
2018-07-28T02:38:43.520Z,70.80
2018-07-28T02:41:46.752Z,68.60
2018-07-28T02:44:50.053Z,70.90
2018-07-28T02:47:53.304Z,70.30
2018-07-28T02:50:56.556Z,70.10
2018-07-28T02:53:59.812Z,69.70
2018-07-28T02:57:03.054Z,70.80
2018-07-28T03:00:07.826Z,71.60
2018-07-28T03:03:11.082Z,72.90
2018-07-28T03:06:14.340Z,72.80
2018-07-28T03:09:17.616Z,73.20
2018-07-28T03:12:20.832Z,73.40
2018-07-28T03:15:30.603Z,73.20
2018-07-28T03:18:33.807Z,73.00
2018-07-28T03:21:37.141Z,73.80
2018-07-28T03:24:40.326Z,73.30
2018-07-28T03:27:43.518Z,73.60
2018-07-28T03:30:46.696Z,73.40
2018-07-28T03:33:50.004Z,74.90
2018-07-28T03:36:53.201Z,75.00
2018-07-28T03:39:56.433Z,75.80
2018-07-28T03:42:59.676Z,75.80
2018-07-28T03:46:03.542Z,75.00
2018-07-28T03:49:06.842Z,74.50
2018-07-28T03:52:10.132Z,72.80
2018-07-28T03:55:13.499Z,73.60
2018-07-28T03:58:16.828Z,72.10
2018-07-28T04:01:20.221Z,72.00
2018-07-28T04:04:23.576Z,69.80
2018-07-28T04:07:26.921Z,71.00
2018-07-28T04:10:30.352Z,69.70
2018-07-28T04:13:33.774Z,70.50
2018-07-28T04:16:37.061Z,71.10
2018-07-28T04:19:40.421Z,70.20
2018-07-28T04:22:43.803Z,70.50
2018-07-28T04:25:47.237Z,72.00
2018-07-28T04:28:50.667Z,71.90
2018-07-28T04:31:54.018Z,72.10
2018-07-28T04:34:57.332Z,72.60
2018-07-28T04:38:00.665Z,73.60
2018-07-28T04:41:04.063Z,73.30
2018-07-28T04:44:07.475Z,74.60
2018-07-28T04:47:10.792Z,73.60
2018-07-28T04:50:14.141Z,74.10
2018-07-28T04:53:17.516Z,75.70
2018-07-28T04:56:20.817Z,74.30
2018-07-28T04:59:24.159Z,75.70
2018-07-28T05:02:28.116Z,76.10
2018-07-28T05:05:31.757Z,77.50
2018-07-28T05:08:35.269Z,77.90
2018-07-28T05:11:38.650Z,79.40
2018-07-28T05:14:41.911Z,80.10
2018-07-28T05:17:45.239Z,80.50
2018-07-28T05:20:49.814Z,82.40
2018-07-28T05:23:54.181Z,83.20
2018-07-28T05:27:00.405Z,83.30
2018-07-28T05:30:04.723Z,83.80
2018-07-28T05:33:08.042Z,82.30
2018-07-28T05:36:11.695Z,83.40
2018-07-28T05:39:15.047Z,85.10
2018-07-28T05:42:18.398Z,87.80
2018-07-28T05:45:21.694Z,89.00
2018-07-28T05:48:25.068Z,88.60
2018-07-28T05:51:28.450Z,90.50
2018-07-28T05:54:31.790Z,90.70
2018-07-28T05:57:35.138Z,91.20
2018-07-28T06:00:38.473Z,92.00
2018-07-28T06:03:41.790Z,91.40
2018-07-28T06:06:45.269Z,88.40
2018-07-28T06:09:48.674Z,90.90
2018-07-28T06:12:52.029Z,90.20
2018-07-28T06:15:55.386Z,91.00
2018-07-28T06:18:58.693Z,91.80
2018-07-28T06:22:01.950Z,89.70
2018-07-28T06:25:06.186Z,88.60
2018-07-28T06:28:09.511Z,89.40
2018-07-28T06:31:13.061Z,90.20
2018-07-28T06:34:16.318Z,89.70
2018-07-28T06:37:19.604Z,89.90
2018-07-28T06:40:22.826Z,91.10
2018-07-28T06:43:26.117Z,90.10
2018-07-28T06:46:29.406Z,90.40
2018-07-28T06:49:32.652Z,90.30
2018-07-28T06:52:35.854Z,90.60
2018-07-28T06:55:38.975Z,90.70
2018-07-28T06:58:42.176Z,90.90
2018-07-28T07:01:45.147Z,91.40
2018-07-28T07:04:48.151Z,92.00
2018-07-28T07:07:51.314Z,92.30
2018-07-28T07:10:54.406Z,92.60
2018-07-28T07:13:57.393Z,92.90
2018-07-28T07:17:00.615Z,93.90
2018-07-28T07:20:04.434Z,94.80
2018-07-28T07:23:07.439Z,95.50
2018-07-28T07:26:10.655Z,95.90
2018-07-28T07:29:13.709Z,94.90
2018-07-28T07:32:16.800Z,95.50
2018-07-28T07:35:19.834Z,95.10
2018-07-28T07:38:22.767Z,95.80
2018-07-28T07:41:25.821Z,96.90
2018-07-28T07:44:28.871Z,99.60
2018-07-28T07:47:31.947Z,99.90
2018-07-28T07:50:35.469Z,99.90
2018-07-28T07:53:38.465Z,99.90
2018-07-28T07:56:42.991Z,99.90
2018-07-28T07:59:45.947Z,99.90
2018-07-28T08:02:48.937Z,99.90
2018-07-28T08:05:52.167Z,99.90
2018-07-28T08:08:55.221Z,99.90
2018-07-28T08:11:58.317Z,99.90
2018-07-28T08:15:01.659Z,99.90
2018-07-28T08:18:04.824Z,99.90
2018-07-28T08:21:07.977Z,99.90
2018-07-28T08:24:11.269Z,99.90
2018-07-28T08:27:14.346Z,99.90
2018-07-28T08:30:17.481Z,99.90
2018-07-28T08:33:20.587Z,99.90
2018-07-28T08:36:23.638Z,99.90
2018-07-28T08:39:26.712Z,99.90
2018-07-28T08:42:29.967Z,99.90
2018-07-28T08:45:33.338Z,99.90
2018-07-28T08:48:36.463Z,99.90
2018-07-28T08:51:39.574Z,99.90
2018-07-28T08:54:42.719Z,99.90
2018-07-28T08:57:45.826Z,99.90
2018-07-28T09:00:48.917Z,99.90
2018-07-28T09:03:52.222Z,99.90
2018-07-28T09:06:55.266Z,99.90
2018-07-28T09:09:58.839Z,99.90
2018-07-28T09:13:01.933Z,99.90
2018-07-28T09:16:04.925Z,99.90
2018-07-28T09:19:08.057Z,99.90
2018-07-28T09:22:11.407Z,99.90
2018-07-28T09:25:14.662Z,99.90
2018-07-28T09:28:18.084Z,99.90
2018-07-28T09:31:21.251Z,99.90
2018-07-28T09:34:24.339Z,99.90
2018-07-28T09:37:27.457Z,99.90
2018-07-28T09:40:30.528Z,99.90
2018-07-28T09:43:34.210Z,99.90
2018-07-28T09:46:37.444Z,99.90
2018-07-28T09:49:40.542Z,99.90
2018-07-28T09:52:43.794Z,99.90
2018-07-28T09:55:47.239Z,99.90
2018-07-28T09:58:50.405Z,99.90
2018-07-28T10:01:53.563Z,99.90
2018-07-28T10:04:56.740Z,99.90
2018-07-28T10:08:00.472Z,99.90
2018-07-28T10:11:03.636Z,99.90
2018-07-28T10:14:06.963Z,99.90
2018-07-28T10:17:10.126Z,99.90
2018-07-28T10:20:13.226Z,99.90
2018-07-28T10:23:16.408Z,99.90
2018-07-28T10:26:19.605Z,99.90
2018-07-28T10:29:22.836Z,99.90
2018-07-28T10:32:25.985Z,99.90
2018-07-28T10:35:29.181Z,99.90
2018-07-28T10:38:33.316Z,99.90
2018-07-28T10:41:36.960Z,99.90
2018-07-28T10:44:40.486Z,99.90
2018-07-28T10:47:44.048Z,99.90
2018-07-28T10:50:47.717Z,99.90
2018-07-28T10:53:50.961Z,99.90
2018-07-28T10:56:54.446Z,99.90
2018-07-28T10:59:58.045Z,99.90
2018-07-28T11:03:01.576Z,99.90
2018-07-28T11:06:05.609Z,99.90
2018-07-28T11:09:09.457Z,99.90
2018-07-28T11:12:12.980Z,99.90
2018-07-28T11:15:16.212Z,99.90
2018-07-28T11:18:20.479Z,99.90
2018-07-28T11:21:23.517Z,99.90
2018-07-28T11:24:26.512Z,99.90
2018-07-28T11:27:29.512Z,99.90
2018-07-28T11:30:32.523Z,99.90
2018-07-28T11:33:52.694Z,99.90
2018-07-28T11:37:12.758Z,99.90
2018-07-28T11:40:32.683Z,99.90
2018-07-28T11:43:52.663Z,99.90
2018-07-28T11:46:55.577Z,99.90
2018-07-28T11:49:58.556Z,99.90
2018-07-28T11:53:01.487Z,99.90
2018-07-28T11:56:04.972Z,99.90
2018-07-28T11:59:07.907Z,99.90
2018-07-28T12:02:10.911Z,99.90
2018-07-28T12:05:13.871Z,99.90
2018-07-28T12:08:16.801Z,99.90
2018-07-28T12:11:19.816Z,99.90
2018-07-28T12:14:22.815Z,99.90
2018-07-28T12:17:25.779Z,99.90
2018-07-28T12:20:28.728Z,99.90
2018-07-28T12:23:31.777Z,98.10
2018-07-28T12:26:34.976Z,99.20
2018-07-28T12:29:37.921Z,97.30
2018-07-28T12:32:41.166Z,98.90
2018-07-28T12:35:44.221Z,99.60
2018-07-28T12:38:47.218Z,97.90
2018-07-28T12:41:50.283Z,95.90
2018-07-28T12:44:53.279Z,96.00
2018-07-28T12:47:56.305Z,96.50
2018-07-28T12:50:59.297Z,96.30
2018-07-28T12:54:02.397Z,96.10
2018-07-28T12:57:05.418Z,96.00
2018-07-28T13:00:08.461Z,95.00
2018-07-28T13:03:11.499Z,94.60
2018-07-28T13:06:14.463Z,94.90
2018-07-28T13:09:17.480Z,94.20
2018-07-28T13:12:20.520Z,94.00
2018-07-28T13:15:23.501Z,92.30
2018-07-28T13:18:26.490Z,93.30
2018-07-28T13:21:29.526Z,93.80
2018-07-28T13:24:32.514Z,92.60
2018-07-28T13:27:35.529Z,93.60
2018-07-28T13:30:38.495Z,94.80
2018-07-28T13:33:41.497Z,93.10
2018-07-28T13:36:44.498Z,95.20
2018-07-28T13:39:47.445Z,94.40
2018-07-28T13:42:50.468Z,95.20
2018-07-28T13:46:00.173Z,96.10
2018-07-28T13:49:03.401Z,95.50
2018-07-28T13:52:06.517Z,95.30
2018-07-28T13:55:09.500Z,96.30
2018-07-28T13:58:12.568Z,96.70
2018-07-28T14:01:15.570Z,96.90
2018-07-28T14:04:18.585Z,97.40
2018-07-28T14:07:21.602Z,94.80
2018-07-28T14:10:24.616Z,95.10
2018-07-28T14:13:27.635Z,95.90
2018-07-28T14:16:30.650Z,95.70
2018-07-28T14:19:33.692Z,95.70
2018-07-28T14:22:36.900Z,94.80
2018-07-28T14:25:39.887Z,94.90
2018-07-28T14:28:42.873Z,95.10
2018-07-28T14:31:45.827Z,94.50
2018-07-28T14:34:48.794Z,93.20
2018-07-28T14:37:51.878Z,94.20
2018-07-28T14:40:54.807Z,93.10
2018-07-28T14:43:57.822Z,92.80
2018-07-28T14:47:00.789Z,92.40
2018-07-28T14:50:03.871Z,91.60
2018-07-28T14:53:07.490Z,91.60
2018-07-28T14:56:10.473Z,91.10
2018-07-28T14:59:13.760Z,91.90
2018-07-28T15:02:16.700Z,92.40
2018-07-28T15:05:19.622Z,92.30
2018-07-28T15:08:22.572Z,94.80
2018-07-28T15:11:25.570Z,95.40
2018-07-28T15:14:28.521Z,95.60
2018-07-28T15:17:31.468Z,97.10
2018-07-28T15:20:34.452Z,96.40
2018-07-28T15:23:37.616Z,96.40
2018-07-28T15:26:40.559Z,96.40
2018-07-28T15:29:43.513Z,95.70
2018-07-28T15:32:46.666Z,96.50
2018-07-28T15:35:49.873Z,96.40
2018-07-28T15:38:52.819Z,96.60
2018-07-28T15:41:56.004Z,96.30
2018-07-28T15:44:59.023Z,97.40
2018-07-28T15:48:02.159Z,95.90
2018-07-28T15:51:05.181Z,95.40
2018-07-28T15:54:08.187Z,94.90
2018-07-28T15:57:11.316Z,98.40
2018-07-28T16:00:16.816Z,95.80
2018-07-28T16:03:19.994Z,98.00
2018-07-28T16:06:23.018Z,95.60
2018-07-28T16:09:26.067Z,94.70
2018-07-28T16:12:29.236Z,95.80
2018-07-28T16:15:32.452Z,95.40
2018-07-28T16:18:35.511Z,94.70
2018-07-28T16:21:38.476Z,94.50
2018-07-28T16:24:41.502Z,93.60
2018-07-28T16:27:44.549Z,93.90
2018-07-28T16:30:47.626Z,90.40
2018-07-28T16:33:50.918Z,91.90
2018-07-28T16:36:54.091Z,91.90
2018-07-28T16:39:57.212Z,90.90
2018-07-28T16:43:00.223Z,90.80
2018-07-28T16:46:03.495Z,93.50
2018-07-28T16:49:06.734Z,95.80
2018-07-28T16:52:09.792Z,97.30
2018-07-28T16:55:12.815Z,97.60
2018-07-28T16:58:15.883Z,99.30
2018-07-28T17:01:18.869Z,99.70
2018-07-28T17:04:21.941Z,99.90
2018-07-28T17:07:24.948Z,99.90
2018-07-28T17:10:27.968Z,99.90
2018-07-28T17:13:31.033Z,99.90
2018-07-28T17:16:34.335Z,99.90
2018-07-28T17:19:37.414Z,99.90
2018-07-28T17:22:40.523Z,99.90
2018-07-28T17:25:43.589Z,99.90
2018-07-28T17:28:46.795Z,99.90
2018-07-28T17:31:50.693Z,99.90
2018-07-28T17:34:53.890Z,99.90
2018-07-28T17:37:56.933Z,99.90
2018-07-28T17:41:00.069Z,99.90
2018-07-28T17:44:03.062Z,99.90
2018-07-28T17:47:06.236Z,99.90
2018-07-28T17:50:09.347Z,99.90
2018-07-28T17:53:12.485Z,99.90
2018-07-28T17:56:15.444Z,99.90
2018-07-28T17:59:18.355Z,99.90
2018-07-28T18:02:21.349Z,99.90
2018-07-28T18:05:24.353Z,99.90
2018-07-28T18:08:27.308Z,99.90
2018-07-28T18:11:30.212Z,99.90
2018-07-28T18:14:33.264Z,99.90
2018-07-28T18:17:36.227Z,99.90
2018-07-28T18:20:39.196Z,99.90
2018-07-28T18:23:42.146Z,99.90
2018-07-28T18:26:45.180Z,99.90
2018-07-28T18:29:48.124Z,99.90
2018-07-28T18:32:51.096Z,99.90
2018-07-28T18:35:54.076Z,99.90
2018-07-28T18:38:57.031Z,99.90
2018-07-28T18:41:59.974Z,99.90
2018-07-28T18:45:02.946Z,99.90
2018-07-28T18:48:05.960Z,99.90
2018-07-28T18:51:08.985Z,99.90
2018-07-28T18:54:11.976Z,99.90
2018-07-28T18:57:14.946Z,99.90
2018-07-28T19:00:17.928Z,99.90
2018-07-28T19:03:20.864Z,99.90
2018-07-28T19:06:23.831Z,99.90
2018-07-28T19:09:32.512Z,99.90
2018-07-28T19:12:41.034Z,99.90
2018-07-28T19:15:43.964Z,99.90
2018-07-28T19:18:52.518Z,99.90
2018-07-28T19:21:55.495Z,99.90
2018-07-28T19:24:58.461Z,99.90
2018-07-28T19:28:06.910Z,99.90
2018-07-28T19:31:09.839Z,99.90
2018-07-28T19:34:12.796Z,99.90
2018-07-28T19:37:19.984Z,99.90
2018-07-28T19:40:22.981Z,99.90
2018-07-28T19:43:25.906Z,99.90
2018-07-28T19:46:28.910Z,99.90
2018-07-28T19:49:31.848Z,99.90
2018-07-28T19:52:34.781Z,99.90
2018-07-28T19:55:37.744Z,99.90
2018-07-28T19:58:40.662Z,99.90
2018-07-28T20:01:43.597Z,99.90
2018-07-28T20:04:46.561Z,99.90
2018-07-28T20:07:49.497Z,99.90
2018-07-28T20:10:52.497Z,99.90
2018-07-28T20:13:55.431Z,99.90
2018-07-28T20:16:58.481Z,99.90
2018-07-28T20:20:01.366Z,99.90
2018-07-28T20:23:04.323Z,99.90
2018-07-28T20:26:07.424Z,99.90
2018-07-28T20:29:10.346Z,99.90
2018-07-28T20:32:13.400Z,99.90
2018-07-28T20:35:16.299Z,99.90
2018-07-28T20:38:19.290Z,99.90
2018-07-28T20:41:22.364Z,99.90
2018-07-28T20:44:25.282Z,99.90
2018-07-28T20:47:28.367Z,99.90
2018-07-28T20:50:31.298Z,99.90
2018-07-28T20:53:34.273Z,99.90
2018-07-28T20:56:37.237Z,99.90
2018-07-28T20:59:40.215Z,99.90
2018-07-28T21:02:43.169Z,99.90
2018-07-28T21:05:47.353Z,99.90
2018-07-28T21:08:50.315Z,99.90
2018-07-28T21:11:53.299Z,99.90
2018-07-28T21:14:56.287Z,99.90
2018-07-28T21:17:59.231Z,99.90
2018-07-28T21:21:02.190Z,99.90
2018-07-28T21:24:05.409Z,99.90
2018-07-28T21:27:08.417Z,99.90
2018-07-28T21:30:11.399Z,99.90
2018-07-28T21:33:14.300Z,99.90
2018-07-28T21:36:17.224Z,99.90
2018-07-28T21:39:20.199Z,99.90
2018-07-28T21:42:26.410Z,99.90
2018-07-28T21:45:29.398Z,99.90
2018-07-28T21:48:32.378Z,99.90
2018-07-28T21:51:35.788Z,99.90
2018-07-28T21:54:50.255Z,99.90
2018-07-28T21:57:53.831Z,99.90
2018-07-28T22:01:02.976Z,99.90
2018-07-28T22:04:07.370Z,99.90
2018-07-28T22:07:13.028Z,99.90
2018-07-28T22:10:18.246Z,99.90
2018-07-28T22:13:22.408Z,99.90
2018-07-28T22:16:25.979Z,99.90
2018-07-28T22:19:30.656Z,99.90
2018-07-28T22:22:34.524Z,99.90
2018-07-28T22:25:38.518Z,99.90
2018-07-28T22:28:42.149Z,99.90
2018-07-28T22:31:45.237Z,99.90
2018-07-28T22:34:48.204Z,99.90
2018-07-28T22:37:52.187Z,99.90
2018-07-28T22:40:55.204Z,99.90
2018-07-28T22:43:58.211Z,99.90
2018-07-28T22:47:01.213Z,99.90
2018-07-28T22:50:05.477Z,99.90
2018-07-28T22:53:08.892Z,99.90
2018-07-28T22:56:11.912Z,99.90
2018-07-28T22:59:14.896Z,99.90
2018-07-28T23:02:17.832Z,99.90
2018-07-28T23:05:20.790Z,99.90
2018-07-28T23:08:23.804Z,99.90
2018-07-28T23:11:26.784Z,99.90
2018-07-28T23:14:29.766Z,99.90
2018-07-28T23:17:32.806Z,99.90
2018-07-28T23:20:35.884Z,99.90
2018-07-28T23:23:38.863Z,99.90
2018-07-28T23:26:41.893Z,99.90
2018-07-28T23:29:44.856Z,99.90
2018-07-28T23:32:47.811Z,99.90
2018-07-28T23:35:51.151Z,99.90
2018-07-28T23:38:54.162Z,99.90
2018-07-28T23:41:57.207Z,99.90
2018-07-28T23:45:00.433Z,99.90
2018-07-28T23:48:03.535Z,99.90
2018-07-28T23:51:06.687Z,99.90
2018-07-28T23:54:09.838Z,99.90
2018-07-28T23:57:12.990Z,99.90
